Time;durP1;ratioP1;P1;durP2;ratioP2;P2;SDS_P1;SDS_P2;PMS_P1;PMS_P2;Temp;Humidity;BMP_temperature;BMP_pressure;BME280_temperature;BME280_humidity;BME280_pressure;Samples;Min_cycle;Max_cycle;Signal;HPM_P1;HPM_P2
2022/10/17 00:00:35;;;;;;;1.75;1.00;;;;;;;16.92;100.00;101362.53;20881696;28;20064;-77
2022/10/17 00:10:37;;;;;;;1.55;1.02;;;;;;;17.38;100.00;101438.88;20880613;28;20045;-76
2022/10/17 00:20:39;;;;;;;2.00;1.00;;;;;;;16.76;100.00;101349.41;20878685;28;20045;-76
2022/10/17 00:30:40;;;;;;;1.52;1.00;;;;;;;17.44;100.00;101440.19;20876860;28;20041;-76
2022/10/17 00:40:42;;;;;;;1.38;1.00;;;;;;;17.43;100.00;101436.66;20878142;28;20516;-76
2022/10/17 00:50:46;;;;;;;1.50;0.98;;;;;;;17.43;100.00;101435.78;20876027;28;20405;-76
2022/10/17 01:00:48;;;;;;;1.47;0.70;;;;;;;17.43;100.00;101427.72;20859182;28;20060;-77
2022/10/17 01:11:18;;;;;;;1.70;0.90;;;;;;;17.42;100.00;101413.41;20874683;28;20501;-76
2022/10/17 01:21:30;;;;;;;1.63;0.90;;;;;;;17.43;100.00;101408.88;20876604;28;20139;-76
2022/10/17 01:31:53;;;;;;;2.15;1.10;;;;;;;17.36;100.00;101381.59;20874919;28;20049;-76
2022/10/17 01:42:01;;;;;;;1.63;1.00;;;;;;;17.21;100.00;101357.59;20891664;28;20049;-76
2022/10/17 01:52:09;;;;;;;1.15;0.85;;;;;;;17.03;100.00;101306.13;20887438;28;20048;-76
2022/10/17 02:02:13;;;;;;;2.38;1.20;;;;;;;17.27;100.00;101323.97;20888971;28;20045;-76
2022/10/17 02:12:23;;;;;;;1.40;0.80;;;;;;;17.41;100.00;101336.34;20888118;28;20056;-76
2022/10/17 02:22:38;;;;;;;1.80;0.75;;;;;;;17.25;100.00;101299.91;20888107;28;20055;-76
2022/10/17 02:32:54;;;;;;;1.25;0.80;;;;;;;17.40;100.00;101313.94;20903790;28;20052;-76
2022/10/17 02:42:58;;;;;;;1.05;0.70;;;;;;;17.41;100.00;101330.97;20903035;28;20041;-76
2022/10/17 02:53:04;;;;;;;1.00;0.70;;;;;;;17.31;100.00;101295.00;20887112;28;20049;-76
2022/10/17 03:03:25;;;;;;;0.82;0.65;;;;;;;17.40;100.00;101296.94;20884788;28;20052;-76
2022/10/17 03:13:26;;;;;;;2.03;0.90;;;;;;;17.40;100.00;101280.81;20893686;28;20045;-77
2022/10/17 03:23:28;;;;;;;1.85;1.10;;;;;;;17.11;100.00;101238.25;20866101;28;20497;-77
2022/10/17 03:33:30;;;;;;;1.55;0.98;;;;;;;17.39;100.00;101273.72;20887345;28;20071;-77
2022/10/17 03:43:34;;;;;;;1.30;0.70;;;;;;;16.91;100.00;101199.47;20881443;28;20137;-76
2022/10/17 03:53:36;;;;;;;1.33;0.80;;;;;;;17.18;100.00;101255.59;20880201;28;20048;-76
2022/10/17 04:03:39;;;;;;;0.85;0.70;;;;;;;17.22;100.00;101249.00;20879204;28;20128;-76
2022/10/17 04:13:40;;;;;;;1.35;0.80;;;;;;;17.38;100.00;101277.38;20878376;28;20079;-76
2022/10/17 04:23:42;;;;;;;1.48;0.70;;;;;;;17.27;100.00;101259.41;20876278;28;20048;-76
2022/10/17 04:33:55;;;;;;;0.98;0.88;;;;;;;17.37;100.00;101275.66;20877483;28;20077;-76
2022/10/17 04:43:56;;;;;;;1.33;0.65;;;;;;;17.36;100.00;101253.28;20893954;28;20049;-77
2022/10/17 04:54:00;;;;;;;1.27;0.80;;;;;;;17.37;100.00;101256.84;20876023;28;20045;-77
2022/10/17 05:04:02;;;;;;;1.77;1.00;;;;;;;17.38;100.00;101255.84;20875075;28;20057;-76
2022/10/17 05:14:04;;;;;;;1.08;0.80;;;;;;;17.38;100.00;101250.47;20859219;28;20143;-76
2022/10/17 05:24:08;;;;;;;1.20;1.05;;;;;;;17.38;100.00;101261.22;20885981;28;20061;-76
2022/10/17 05:34:11;;;;;;;2.17;0.80;;;;;;;17.36;100.00;101239.81;20857217;28;20136;-77
2022/10/17 05:44:15;;;;;;;2.45;0.75;;;;;;;17.37;100.00;101254.13;20864886;28;20497;-76
2022/10/17 05:54:20;;;;;;;3.50;1.00;;;;;;;16.93;100.00;101192.13;20880477;28;20131;-76
2022/10/17 06:04:23;;;;;;;1.77;1.00;;;;;;;17.41;100.00;101271.75;20847337;28;20049;-78
2022/10/17 06:14:24;;;;;;;2.17;1.10;;;;;;;17.57;100.00;101292.03;20831883;28;20479;-78
2022/10/17 06:24:33;;;;;;;3.13;1.10;;;;;;;17.61;100.00;101282.72;20875686;28;20049;-77
2022/10/17 06:34:37;;;;;;;2.43;1.00;;;;;;;17.58;100.00;101304.50;20917721;28;20459;-77
2022/10/17 06:44:40;;;;;;;2.63;1.10;;;;;;;17.46;100.00;101283.00;20931804;28;20106;-77
2022/10/17 06:54:56;;;;;;;1.55;0.98;;;;;;;17.65;100.00;101305.72;20869030;28;20095;-77
2022/10/17 07:05:06;;;;;;;1.38;1.00;;;;;;;17.66;100.00;101319.06;20868014;28;20049;-78
2022/10/17 07:15:08;;;;;;;4.53;1.13;;;;;;;17.67;100.00;101325.28;20860000;28;20401;-76
2022/10/17 07:25:10;;;;;;;2.42;1.60;;;;;;;17.71;100.00;101337.56;20801959;28;20180;-75
2022/10/17 07:35:23;;;;;;;3.30;1.88;;;;;;;17.77;100.00;101346.94;20848340;28;20063;-77
2022/10/17 07:45:26;;;;;;;3.65;1.80;;;;;;;17.80;100.00;101358.34;20844728;28;20128;-77
2022/10/17 07:55:28;;;;;;;5.40;1.83;;;;;;;17.82;100.00;101350.13;20853680;28;20658;-76
2022/10/17 08:05:30;;;;;;;6.10;1.70;;;;;;;17.82;100.00;101382.44;20858794;28;20421;-75
2022/10/17 08:15:31;;;;;;;3.60;1.50;;;;;;;17.81;100.00;101370.84;20828930;28;20476;-76
2022/10/17 08:25:33;;;;;;;8.00;2.20;;;;;;;17.81;100.00;101381.59;20847305;28;20059;-76
2022/10/17 08:35:34;;;;;;;4.25;2.15;;;;;;;17.82;100.00;101377.06;20853720;28;20154;-76
2022/10/17 08:46:11;;;;;;;4.13;1.63;;;;;;;17.82;100.00;101372.53;20870739;28;20055;-76
2022/10/17 08:56:25;;;;;;;3.55;1.70;;;;;;;17.86;100.00;101396.53;20843983;28;20048;-76
2022/10/17 09:07:03;;;;;;;2.85;1.70;;;;;;;17.85;100.00;101449.53;20838098;28;20789;-76
2022/10/17 09:17:17;;;;;;;2.92;1.58;;;;;;;17.84;100.00;101504.38;20815885;28;20045;-77
2022/10/17 09:27:26;;;;;;;3.67;2.00;;;;;;;17.85;100.00;101521.41;20839791;28;20060;-76
2022/10/17 09:37:30;;;;;;;4.50;1.52;;;;;;;17.76;100.00;101494.22;20852235;28;20087;-76
2022/10/17 09:47:46;;;;;;;3.10;1.88;;;;;;;17.86;100.00;101517.75;20845408;28;20052;-74
2022/10/17 09:57:59;;;;;;;4.93;2.00;;;;;;;17.87;100.00;101460.19;20844511;28;20053;-75
2022/10/17 10:08:04;;;;;;;4.15;1.95;;;;;;;17.88;100.00;101496.94;20842134;28;20524;-76
2022/10/17 10:18:24;;;;;;;3.13;1.60;;;;;;;17.88;100.00;101521.16;20847569;28;20048;-75
2022/10/17 10:28:32;;;;;;;2.63;1.70;;;;;;;17.88;100.00;101527.41;20850161;28;20288;-75
2022/10/17 10:38:34;;;;;;;3.70;1.90;;;;;;;17.72;100.00;101559.22;20843289;28;22441;-75
2022/10/17 10:48:36;;;;;;;1.95;1.63;;;;;;;17.84;100.00;101579.78;20844559;28;20101;-75
2022/10/17 10:58:54;;;;;;;3.33;1.70;;;;;;;17.82;100.00;101577.25;20834563;28;20053;-75
2022/10/17 11:09:36;;;;;;;3.38;1.60;;;;;;;17.79;100.00;101499.38;20828335;28;20567;-76
2022/10/17 11:20:07;;;;;;;2.60;1.85;;;;;;;17.76;100.00;101566.94;20829736;28;20708;-76
2022/10/17 11:30:15;;;;;;;2.28;1.55;;;;;;;17.75;100.00;101596.69;20828532;28;20517;-76
2022/10/17 11:40:21;;;;;;;3.00;1.95;;;;;;;17.57;100.00;101601.63;20827761;28;20052;-76
2022/10/17 11:50:33;;;;;;;3.00;1.60;;;;;;;17.60;100.00;101620.25;20853001;28;20041;-76
2022/10/17 12:01:36;;;;;;;3.47;1.35;;;;;;;17.73;100.00;101649.78;20847316;28;20056;-76
2022/10/17 12:11:52;;;;;;;2.38;1.48;;;;;;;17.71;100.00;101657.13;20847766;28;20053;-76
2022/10/17 12:21:58;;;;;;;10.68;3.00;;;;;;;17.75;100.00;101656.78;20829281;28;20057;-75
2022/10/17 12:32:10;;;;;;;5.30;1.90;;;;;;;17.70;100.00;101634.75;20827661;28;20053;-74
2022/10/17 12:42:31;;;;;;;4.70;2.42;;;;;;;17.90;100.00;101670.94;20830219;28;20041;-75
2022/10/17 12:52:34;;;;;;;9.15;2.40;;;;;;;17.93;100.00;101664.44;20840228;28;20071;-75
2022/10/17 13:02:35;;;;;;;6.53;2.58;;;;;;;17.96;100.00;101680.34;20822130;28;20057;-74
2022/10/17 13:12:37;;;;;;;5.90;2.13;;;;;;;17.98;100.00;101689.19;20846855;28;20114;-74
2022/10/17 13:22:43;;;;;;;4.13;2.50;;;;;;;18.00;100.00;101691.78;20821989;28;20048;-75
2022/10/17 13:32:45;;;;;;;6.28;2.42;;;;;;;18.01;100.00;101694.34;20849091;28;20041;-74
2022/10/17 13:42:47;;;;;;;6.10;2.53;;;;;;;18.01;100.00;101707.84;20848175;28;20118;-75
2022/10/17 13:53:05;;;;;;;4.50;2.45;;;;;;;17.89;100.00;101719.53;20852464;28;20178;-75
2022/10/17 14:03:06;;;;;;;5.72;2.20;;;;;;;18.02;100.00;101755.34;20842204;28;20045;-75
2022/10/17 14:13:21;;;;;;;5.55;2.40;;;;;;;18.03;100.00;101773.25;20862639;28;20068;-74
2022/10/17 14:23:41;;;;;;;3.28;2.15;;;;;;;17.89;100.00;101768.84;20852076;28;20061;-75
2022/10/17 14:33:45;;;;;;;2.70;1.67;;;;;;;17.81;100.00;101780.22;20832663;28;20044;-75
2022/10/17 14:43:57;;;;;;;9.20;2.92;;;;;;;17.93;100.00;101810.78;20846666;28;20057;-75
2022/10/17 14:53:58;;;;;;;4.90;2.40;;;;;;;17.91;100.00;101826.19;20844091;28;20490;-75
2022/10/17 15:04:09;;;;;;;3.65;1.42;;;;;;;17.88;100.00;101830.94;20856447;28;20051;-75
2022/10/17 15:14:11;;;;;;;2.80;1.67;;;;;;;17.86;100.00;101819.41;20837456;28;20577;-75
2022/10/17 15:24:13;;;;;;;3.00;1.77;;;;;;;17.69;100.00;101786.53;20864926;28;20506;-75
2022/10/17 15:34:15;;;;;;;2.33;1.23;;;;;;;17.56;100.00;101774.91;20848022;28;20068;-76
2022/10/17 15:44:16;;;;;;;2.60;1.60;;;;;;;17.82;100.00;101825.03;20837078;28;20060;-75
2022/10/17 15:54:18;;;;;;;3.10;1.60;;;;;;;17.73;100.00;101825.72;20801896;28;20068;-76
2022/10/17 16:04:19;;;;;;;3.35;1.40;;;;;;;17.81;100.00;101849.38;20775490;28;20045;-76
2022/10/17 16:14:21;;;;;;;2.95;1.65;;;;;;;17.80;100.00;101859.31;20884182;28;20048;-76
2022/10/17 16:24:23;;;;;;;1.92;1.40;;;;;;;17.79;100.00;101857.59;20872155;28;20103;-76
2022/10/17 16:34:25;;;;;;;1.33;1.13;;;;;;;17.79;100.00;101876.44;20841523;28;20057;-76
2022/10/17 16:44:26;;;;;;;1.90;1.40;;;;;;;17.77;100.00;101901.75;20846511;28;20049;-76
2022/10/17 16:54:28;;;;;;;2.33;1.10;;;;;;;17.78;100.00;101908.84;20847995;28;20148;-76
2022/10/17 17:04:29;;;;;;;2.30;1.23;;;;;;;17.78;100.00;101925.91;20854024;28;20063;-76
2022/10/17 17:14:31;;;;;;;3.90;1.42;;;;;;;17.75;100.00;101918.03;20850289;28;20063;-75
2022/10/17 17:24:32;;;;;;;2.17;1.40;;;;;;;17.49;100.00;101880.38;20850265;28;20472;-75
2022/10/17 17:34:35;;;;;;;2.65;1.38;;;;;;;17.60;100.00;101908.34;20861240;28;20049;-74
2022/10/17 17:44:37;;;;;;;1.52;1.10;;;;;;;17.75;100.00;101953.06;20875957;28;20056;-75
2022/10/17 17:54:38;;;;;;;1.88;1.00;;;;;;;17.75;100.00;101953.06;20874091;28;20446;-75
2022/10/17 18:04:41;;;;;;;3.20;1.33;;;;;;;17.74;100.00;101959.41;20856886;28;20041;-75
2022/10/17 18:14:42;;;;;;;1.35;1.25;;;;;;;17.74;100.00;101988.16;20874557;28;20052;-75
2022/10/17 18:24:44;;;;;;;2.97;1.20;;;;;;;17.73;100.00;101984.63;20873257;28;20103;-75
2022/10/17 18:34:45;;;;;;;1.35;1.25;;;;;;;17.53;100.00;101965.31;20887294;28;20045;-75
2022/10/17 18:44:47;;;;;;;1.40;1.00;;;;;;;17.72;100.00;101998.19;20882797;28;20049;-75
2022/10/17 18:54:49;;;;;;;1.67;1.20;;;;;;;17.63;100.00;101997.00;20885719;28;20124;-76
2022/10/17 19:04:50;;;;;;;1.83;0.90;;;;;;;17.62;100.00;102020.38;20884166;28;20057;-78
2022/10/17 19:14:51;;;;;;;0.98;0.80;;;;;;;17.65;100.00;102030.06;20884571;28;20602;-74
2022/10/17 19:24:53;;;;;;;2.22;1.00;;;;;;;17.61;100.00;102032.13;20885693;28;20059;-75
2022/10/17 19:34:54;;;;;;;0.98;0.88;;;;;;;17.70;100.00;102057.56;20884222;28;20052;-75
2022/10/17 19:44:56;;;;;;;0.90;0.90;;;;;;;17.71;100.00;102061.09;20881553;28;20455;-75
2022/10/17 19:54:57;;;;;;;1.08;0.98;;;;;;;17.70;100.00;102079.09;20882872;28;20067;-75
2022/10/17 20:04:59;;;;;;;1.70;1.00;;;;;;;17.69;100.00;102096.22;20882310;28;20047;-75
2022/10/17 20:15:18;;;;;;;1.25;1.00;;;;;;;17.44;100.00;102062.91;20881694;28;20052;-75
2022/10/17 20:25:20;;;;;;;1.20;0.93;;;;;;;17.71;100.00;102128.44;20880592;28;20052;-75
2022/10/17 20:35:21;;;;;;;1.67;1.10;;;;;;;17.69;100.00;102142.00;20879067;28;20049;-75
2022/10/17 20:45:23;;;;;;;1.58;1.08;;;;;;;17.67;100.00;102133.16;20878370;28;20139;-75
2022/10/17 20:55:45;;;;;;;1.98;1.25;;;;;;;17.69;100.00;102150.09;20878557;28;20143;-75
2022/10/17 21:05:47;;;;;;;1.10;0.95;;;;;;;17.68;100.00;102161.84;20876358;28;20410;-75
2022/10/17 21:15:48;;;;;;;1.15;1.05;;;;;;;17.67;100.00;102173.53;20875761;28;20072;-74
2022/10/17 21:25:50;;;;;;;1.42;0.98;;;;;;;17.67;100.00;102187.00;20876946;28;20041;-75
2022/10/17 21:35:53;;;;;;;1.60;1.10;;;;;;;17.67;100.00;102187.00;20876748;28;20053;-75
2022/10/17 21:45:55;;;;;;;1.13;0.90;;;;;;;17.48;100.00;102161.31;20874208;28;20470;-75
2022/10/17 21:56:06;;;;;;;1.35;1.00;;;;;;;17.66;100.00;102186.16;20874872;28;20517;-75
2022/10/17 22:06:08;;;;;;;1.25;1.13;;;;;;;17.65;100.00;102195.22;20882834;28;20053;-75
2022/10/17 22:16:30;;;;;;;1.15;0.98;;;;;;;17.65;100.00;102197.91;20839441;28;20120;-75
2022/10/17 22:26:33;;;;;;;0.82;0.82;;;;;;;17.66;100.00;102201.44;20889165;28;20079;-75
2022/10/17 22:36:35;;;;;;;1.25;0.82;;;;;;;17.66;100.00;102212.22;20871313;28;20049;-75
2022/10/17 22:46:36;;;;;;;1.50;0.90;;;;;;;17.64;100.00;102198.00;20887913;28;20048;-75
2022/10/17 22:56:38;;;;;;;0.85;0.75;;;;;;;17.64;100.00;102195.28;20887365;28;20140;-75
2022/10/17 23:06:39;;;;;;;1.15;0.98;;;;;;;17.63;100.00;102194.44;20886823;28;20048;-75
2022/10/17 23:16:41;;;;;;;0.82;0.75;;;;;;;17.64;100.00;102203.38;20885436;28;20048;-75
2022/10/17 23:26:42;;;;;;;1.70;0.85;;;;;;;17.63;100.00;102198.94;20883529;28;20048;-76
2022/10/17 23:36:44;;;;;;;1.05;0.82;;;;;;;17.63;100.00;102220.50;20883856;28;20063;-75
2022/10/17 23:46:45;;;;;;;1.55;1.10;;;;;;;17.63;100.00;102215.13;20881950;28;20045;-76
2022/10/17 23:56:46;;;;;;;0.75;0.75;;;;;;;17.62;100.00;102206.19;20883160;28;20140;-75
